createdAt,value
2018-12-24T00:00:07.523Z,100.00
2018-12-24T00:02:36.988Z,100.00
2018-12-24T00:05:06.463Z,100.00
2018-12-24T00:07:35.869Z,100.00
2018-12-24T00:10:05.746Z,100.00
2018-12-24T00:12:35.504Z,100.00
2018-12-24T00:15:05.398Z,100.00
2018-12-24T00:17:34.872Z,100.00
2018-12-24T00:20:05.426Z,100.00
2018-12-24T00:22:34.904Z,100.00
2018-12-24T00:25:04.366Z,100.00
2018-12-24T00:27:33.778Z,100.00
2018-12-24T00:30:03.233Z,100.00
2018-12-24T00:32:32.642Z,100.00
2018-12-24T00:35:02.537Z,100.00
2018-12-24T00:37:32.005Z,100.00
2018-12-24T00:40:01.395Z,100.00
2018-12-24T00:42:30.831Z,100.00
2018-12-24T00:45:00.254Z,100.00
2018-12-24T00:47:29.682Z,100.00
2018-12-24T00:49:59.082Z,100.00
2018-12-24T00:52:28.758Z,100.00
2018-12-24T00:54:58.163Z,100.00
2018-12-24T00:57:27.635Z,100.00
2018-12-24T00:59:57.016Z,100.00
2018-12-24T01:02:26.580Z,100.00
2018-12-24T01:04:55.972Z,100.00
2018-12-24T01:07:25.376Z,100.00
2018-12-24T01:09:58.036Z,100.00
2018-12-24T01:12:27.578Z,100.00
2018-12-24T01:14:57.244Z,100.00
2018-12-24T01:17:26.666Z,100.00
2018-12-24T01:19:56.056Z,100.00
2018-12-24T01:22:25.539Z,100.00
2018-12-24T01:24:54.959Z,100.00
2018-12-24T01:27:24.355Z,100.00
2018-12-24T01:29:53.772Z,100.00
2018-12-24T01:32:23.264Z,100.00
2018-12-24T01:34:52.676Z,100.00
2018-12-24T01:37:22.072Z,100.00
2018-12-24T01:39:51.497Z,100.00
2018-12-24T01:42:20.889Z,100.00
2018-12-24T01:44:50.299Z,100.00
2018-12-24T01:47:19.696Z,100.00
2018-12-24T01:49:49.120Z,100.00
2018-12-24T01:52:18.509Z,100.00
2018-12-24T01:54:47.936Z,100.00
2018-12-24T01:57:17.334Z,100.00
2018-12-24T01:59:46.755Z,100.00
2018-12-24T02:02:16.172Z,100.00
2018-12-24T02:04:45.605Z,100.00
2018-12-24T02:07:15.016Z,100.00
2018-12-24T02:09:44.451Z,100.00
2018-12-24T02:12:13.846Z,100.00
2018-12-24T02:14:43.272Z,100.00
2018-12-24T02:17:12.689Z,100.00
2018-12-24T02:19:42.122Z,100.00
2018-12-24T02:22:12.940Z,100.00
2018-12-24T02:24:42.620Z,100.00
2018-12-24T02:27:12.025Z,100.00
2018-12-24T02:29:41.418Z,100.00
2018-12-24T02:32:10.854Z,100.00
2018-12-24T02:34:40.258Z,100.00
2018-12-24T02:37:09.679Z,100.00
2018-12-24T02:39:39.086Z,100.00
2018-12-24T02:42:08.498Z,100.00
2018-12-24T02:44:37.970Z,100.00
2018-12-24T02:47:07.663Z,100.00
2018-12-24T02:49:37.413Z,100.00
2018-12-24T02:52:06.851Z,100.00
2018-12-24T02:54:36.256Z,100.00
2018-12-24T02:57:06.109Z,100.00
2018-12-24T02:59:35.493Z,100.00
2018-12-24T03:02:04.925Z,100.00
2018-12-24T03:04:34.314Z,100.00
2018-12-24T03:07:03.814Z,100.00
2018-12-24T03:09:33.242Z,100.00
2018-12-24T03:12:02.666Z,100.00
2018-12-24T03:14:32.086Z,100.00
2018-12-24T03:17:01.514Z,100.00
2018-12-24T03:19:30.937Z,100.00
2018-12-24T03:22:00.339Z,100.00
2018-12-24T03:24:29.763Z,100.00
2018-12-24T03:26:59.154Z,100.00
2018-12-24T03:29:28.568Z,100.00
2018-12-24T03:31:58.037Z,100.00
2018-12-24T03:34:27.440Z,100.00
2018-12-24T03:36:57.041Z,100.00
2018-12-24T03:39:26.550Z,100.00
2018-12-24T03:41:55.980Z,100.00
2018-12-24T03:44:25.376Z,100.00
2018-12-24T03:46:54.802Z,100.00
2018-12-24T03:49:24.239Z,100.00
2018-12-24T03:51:53.654Z,100.00
2018-12-24T03:54:23.062Z,100.00
2018-12-24T03:56:52.497Z,100.00
2018-12-24T03:59:21.918Z,100.00
2018-12-24T04:01:51.327Z,100.00
2018-12-24T04:04:20.756Z,100.00
2018-12-24T04:06:50.325Z,100.00
2018-12-24T04:09:20.384Z,100.00
2018-12-24T04:11:49.875Z,100.00
2018-12-24T04:14:19.286Z,100.00
2018-12-24T04:16:48.704Z,100.00
2018-12-24T04:19:18.101Z,100.00
2018-12-24T04:21:47.546Z,100.00
2018-12-24T04:24:16.928Z,100.00
2018-12-24T04:26:46.614Z,100.00
2018-12-24T04:29:16.135Z,100.00
2018-12-24T04:31:45.724Z,100.00
2018-12-24T04:34:15.136Z,100.00
2018-12-24T04:36:44.665Z,100.00
2018-12-24T04:39:14.087Z,100.00
2018-12-24T04:41:43.487Z,100.00
2018-12-24T04:44:13.003Z,100.00
2018-12-24T04:46:42.472Z,100.00
2018-12-24T04:49:11.880Z,100.00
2018-12-24T04:51:41.347Z,100.00
2018-12-24T04:54:10.773Z,100.00
2018-12-24T04:56:40.166Z,100.00
2018-12-24T04:59:09.575Z,100.00
2018-12-24T05:01:38.981Z,100.00
2018-12-24T05:04:08.480Z,100.00
2018-12-24T05:06:37.913Z,100.00
2018-12-24T05:09:07.812Z,100.00
2018-12-24T05:11:37.240Z,100.00
2018-12-24T05:14:06.666Z,100.00
2018-12-24T05:16:36.053Z,100.00
2018-12-24T05:19:05.542Z,100.00
2018-12-24T05:21:34.936Z,100.00
2018-12-24T05:24:04.341Z,100.00
2018-12-24T05:26:33.905Z,100.00
2018-12-24T05:29:03.293Z,100.00
2018-12-24T05:31:32.716Z,100.00
2018-12-24T05:34:02.126Z,100.00
2018-12-24T05:36:31.538Z,100.00
2018-12-24T05:39:01.015Z,100.00
2018-12-24T05:41:30.420Z,100.00
2018-12-24T05:43:59.884Z,100.00
2018-12-24T05:46:29.313Z,100.00
2018-12-24T05:48:58.734Z,100.00
2018-12-24T05:51:28.152Z,100.00
2018-12-24T05:53:57.540Z,100.00
2018-12-24T05:56:26.982Z,100.00
2018-12-24T05:58:56.414Z,100.00
2018-12-24T06:01:25.826Z,100.00
2018-12-24T06:03:55.239Z,100.00
2018-12-24T06:06:24.640Z,100.00
2018-12-24T06:08:54.435Z,100.00
2018-12-24T06:11:23.833Z,100.00
2018-12-24T06:13:57.925Z,100.00
2018-12-24T06:16:24.374Z,100.00
2018-12-24T06:18:53.770Z,100.00
2018-12-24T06:21:23.205Z,100.00
2018-12-24T06:23:52.641Z,100.00
2018-12-24T06:26:22.212Z,100.00
2018-12-24T06:28:51.642Z,100.00
2018-12-24T06:31:21.054Z,100.00
2018-12-24T06:33:50.484Z,100.00
2018-12-24T06:36:19.878Z,100.00
2018-12-24T06:38:49.306Z,100.00
2018-12-24T06:41:18.708Z,100.00
2018-12-24T06:43:48.146Z,100.00
2018-12-24T06:46:17.575Z,100.00
2018-12-24T06:48:46.996Z,100.00
2018-12-24T06:51:16.389Z,100.00
2018-12-24T06:53:45.816Z,100.00
2018-12-24T06:56:15.245Z,100.00
2018-12-24T06:58:44.673Z,100.00
2018-12-24T07:01:14.106Z,100.00
2018-12-24T07:03:43.600Z,100.00
2018-12-24T07:06:13.321Z,100.00
2018-12-24T07:08:42.863Z,100.00
2018-12-24T07:11:12.237Z,100.00
2018-12-24T07:13:41.661Z,100.00
2018-12-24T07:16:11.085Z,100.00
2018-12-24T07:18:40.479Z,100.00
2018-12-24T07:21:09.948Z,100.00
2018-12-24T07:23:39.349Z,100.00
2018-12-24T07:26:09.089Z,100.00
2018-12-24T07:28:38.949Z,100.00
2018-12-24T07:31:08.370Z,100.00
2018-12-24T07:33:37.782Z,100.00
2018-12-24T07:36:07.194Z,100.00
2018-12-24T07:38:36.873Z,100.00
2018-12-24T07:41:06.295Z,100.00
2018-12-24T07:43:35.711Z,100.00
2018-12-24T07:46:05.147Z,100.00
2018-12-24T07:48:34.544Z,100.00
2018-12-24T07:51:03.974Z,100.00
2018-12-24T07:53:35.240Z,100.00
2018-12-24T07:56:04.559Z,100.00
2018-12-24T07:58:34.006Z,100.00
2018-12-24T08:01:03.689Z,100.00
2018-12-24T08:03:33.098Z,100.00
2018-12-24T08:06:02.628Z,100.00
2018-12-24T08:08:32.057Z,100.00
2018-12-24T08:11:01.457Z,100.00
2018-12-24T08:13:30.873Z,100.00
2018-12-24T08:16:00.270Z,100.00
2018-12-24T08:18:29.692Z,100.00
2018-12-24T08:20:59.269Z,100.00
2018-12-24T08:23:28.771Z,100.00
2018-12-24T08:25:58.166Z,100.00
2018-12-24T08:28:27.594Z,100.00
2018-12-24T08:30:56.987Z,100.00
2018-12-24T08:33:26.415Z,100.00
2018-12-24T08:35:55.819Z,100.00
2018-12-24T08:38:25.253Z,100.00
2018-12-24T08:40:54.681Z,100.00
2018-12-24T08:43:24.119Z,100.00
2018-12-24T08:45:53.538Z,100.00
2018-12-24T08:48:22.936Z,100.00
2018-12-24T08:50:52.520Z,100.00
2018-12-24T08:53:21.972Z,100.00
2018-12-24T08:55:51.384Z,100.00
2018-12-24T08:58:20.810Z,100.00
2018-12-24T09:00:50.222Z,100.00
2018-12-24T09:03:19.635Z,100.00
2018-12-24T09:05:49.034Z,100.00
2018-12-24T09:08:18.453Z,100.00
2018-12-24T09:10:47.876Z,100.00
2018-12-24T09:13:17.455Z,100.00
2018-12-24T09:15:46.877Z,100.00
2018-12-24T09:18:16.287Z,100.00
2018-12-24T09:20:52.664Z,100.00
2018-12-24T09:23:16.831Z,100.00
2018-12-24T09:25:46.250Z,100.00
2018-12-24T09:28:15.699Z,100.00
2018-12-24T09:30:46.927Z,100.00
2018-12-24T09:33:16.339Z,100.00
2018-12-24T09:35:45.749Z,100.00
2018-12-24T09:38:15.136Z,100.00
2018-12-24T09:40:44.556Z,100.00
2018-12-24T09:43:13.939Z,100.00
2018-12-24T09:45:43.413Z,100.00
2018-12-24T09:48:12.886Z,100.00
2018-12-24T09:50:42.495Z,100.00
2018-12-24T09:53:11.907Z,100.00
2018-12-24T09:55:41.322Z,100.00
2018-12-24T09:58:10.726Z,100.00
2018-12-24T10:00:40.233Z,100.00
2018-12-24T10:03:09.910Z,100.00
2018-12-24T10:05:39.388Z,100.00
2018-12-24T10:08:12.488Z,100.00
2018-12-24T10:10:41.884Z,100.00
2018-12-24T10:13:11.288Z,100.00
2018-12-24T10:15:41.125Z,100.00
2018-12-24T10:18:10.546Z,100.00
2018-12-24T10:20:39.939Z,100.00
2018-12-24T10:23:09.351Z,100.00
2018-12-24T10:25:38.733Z,100.00
2018-12-24T10:28:08.141Z,99.94
2018-12-24T10:30:37.561Z,99.51
2018-12-24T10:33:48.274Z,99.39
2018-12-24T10:36:17.583Z,100.00
2018-12-24T10:38:46.858Z,99.28
2018-12-24T10:41:16.386Z,99.87
2018-12-24T10:43:45.686Z,100.00
2018-12-24T10:46:15.004Z,100.00
2018-12-24T10:48:46.510Z,100.00
2018-12-24T10:51:15.336Z,100.00
2018-12-24T10:53:44.584Z,100.00
2018-12-24T10:56:13.895Z,100.00
2018-12-24T10:58:43.186Z,100.00
2018-12-24T11:01:12.486Z,100.00
2018-12-24T11:03:41.754Z,92.76
2018-12-24T11:06:11.069Z,91.57
2018-12-24T11:08:40.339Z,93.27
2018-12-24T11:11:09.630Z,93.37
2018-12-24T11:13:39.702Z,93.36
2018-12-24T11:16:09.194Z,94.20
2018-12-24T11:18:38.541Z,94.20
2018-12-24T11:21:07.851Z,94.91
2018-12-24T11:23:37.232Z,93.56
2018-12-24T11:26:06.484Z,93.56
2018-12-24T11:28:35.792Z,91.51
2018-12-24T11:31:05.101Z,86.18
2018-12-24T11:33:34.413Z,84.44
2018-12-24T11:36:03.699Z,81.64
2018-12-24T11:38:32.994Z,85.44
2018-12-24T11:41:02.285Z,83.67
2018-12-24T11:43:31.595Z,81.11
2018-12-24T11:46:00.879Z,76.79
2018-12-24T11:48:30.196Z,79.66
2018-12-24T11:50:59.482Z,81.61
2018-12-24T11:53:28.795Z,82.51
2018-12-24T11:55:58.077Z,81.80
2018-12-24T11:58:27.393Z,80.89
2018-12-24T12:00:56.746Z,79.23
2018-12-24T12:03:26.061Z,76.35
2018-12-24T12:05:55.393Z,78.64
2018-12-24T12:08:25.160Z,78.29
2018-12-24T12:10:54.443Z,79.31
2018-12-24T12:13:23.821Z,76.98
2018-12-24T12:15:53.113Z,78.53
2018-12-24T12:18:22.415Z,77.37
2018-12-24T12:20:52.681Z,76.03
2018-12-24T12:23:22.339Z,76.28
2018-12-24T12:25:51.995Z,74.17
2018-12-24T12:28:21.268Z,70.97
2018-12-24T12:30:50.579Z,68.93
2018-12-24T12:33:19.861Z,68.72
2018-12-24T12:35:49.183Z,66.96
2018-12-24T12:38:18.473Z,64.25
2018-12-24T12:40:47.779Z,61.97
2018-12-24T12:43:17.065Z,60.93
2018-12-24T12:45:51.138Z,55.88
2018-12-24T12:48:17.342Z,57.94
2018-12-24T12:50:46.674Z,60.66
2018-12-24T12:53:15.956Z,62.34
2018-12-24T12:55:45.253Z,60.71
2018-12-24T12:58:14.542Z,58.67
2018-12-24T13:00:43.858Z,57.24
2018-12-24T13:03:13.157Z,60.01
2018-12-24T13:05:42.623Z,60.01
2018-12-24T13:08:11.996Z,65.29
2018-12-24T13:10:41.295Z,68.79
2018-12-24T13:13:10.574Z,72.90
2018-12-24T13:15:39.890Z,77.79
2018-12-24T13:18:09.185Z,80.36
2018-12-24T13:20:38.463Z,84.17
2018-12-24T13:23:07.870Z,84.17
2018-12-24T13:25:37.204Z,83.00
2018-12-24T13:28:06.535Z,83.48
2018-12-24T13:30:35.804Z,85.55
2018-12-24T13:33:05.162Z,86.06
2018-12-24T13:35:34.455Z,86.06
2018-12-24T13:38:03.776Z,86.80
2018-12-24T13:40:33.146Z,86.11
2018-12-24T13:43:02.517Z,86.11
2018-12-24T13:45:31.942Z,82.30
2018-12-24T13:48:01.259Z,79.35
2018-12-24T13:50:30.546Z,78.98
2018-12-24T13:52:59.859Z,77.29
2018-12-24T13:55:29.177Z,77.19
2018-12-24T13:57:58.500Z,75.55
2018-12-24T14:00:27.779Z,75.46
2018-12-24T14:02:57.064Z,76.34
2018-12-24T14:05:26.352Z,75.22
2018-12-24T14:07:55.656Z,74.96
2018-12-24T14:10:24.934Z,74.75
2018-12-24T14:12:54.232Z,72.43
2018-12-24T14:15:23.520Z,75.97
2018-12-24T14:17:52.809Z,77.75
2018-12-24T14:20:22.227Z,77.86
2018-12-24T14:22:51.505Z,81.65
2018-12-24T14:25:20.814Z,80.74
2018-12-24T14:27:50.094Z,82.38
2018-12-24T14:30:19.397Z,82.38
2018-12-24T14:32:48.787Z,79.90
2018-12-24T14:35:18.071Z,79.40
2018-12-24T14:37:47.384Z,79.40
2018-12-24T14:40:16.682Z,80.72
2018-12-24T14:42:45.956Z,80.72
2018-12-24T14:45:15.273Z,81.70
2018-12-24T14:47:44.964Z,80.89
2018-12-24T14:50:14.587Z,82.69
2018-12-24T14:52:43.850Z,83.36
2018-12-24T14:55:13.134Z,83.25
2018-12-24T14:57:42.443Z,82.78
2018-12-24T15:00:12.119Z,85.82
2018-12-24T15:02:41.395Z,84.27
2018-12-24T15:05:10.695Z,84.33
2018-12-24T15:07:40.040Z,85.47
2018-12-24T15:10:09.645Z,85.23
2018-12-24T15:12:38.954Z,85.06
2018-12-24T15:15:08.248Z,85.08
2018-12-24T15:17:37.529Z,86.67
2018-12-24T15:20:07.821Z,86.46
2018-12-24T15:22:37.128Z,86.68
2018-12-24T15:25:06.398Z,87.53
2018-12-24T15:27:35.813Z,87.53
2018-12-24T15:30:06.253Z,87.91
2018-12-24T15:32:35.547Z,89.35
2018-12-24T15:35:05.126Z,89.45
2018-12-24T15:37:34.449Z,90.24
2018-12-24T15:40:04.196Z,92.26
2018-12-24T15:42:33.514Z,89.10
2018-12-24T15:45:02.811Z,92.54
2018-12-24T15:47:32.172Z,92.69
2018-12-24T15:50:01.445Z,92.31
2018-12-24T15:52:30.762Z,94.05
2018-12-24T15:55:00.024Z,93.03
2018-12-24T15:57:29.328Z,92.62
2018-12-24T15:59:58.637Z,95.95
2018-12-24T16:02:27.917Z,95.24
2018-12-24T16:04:57.220Z,95.19
2018-12-24T16:07:26.545Z,96.33
2018-12-24T16:09:55.864Z,96.59
2018-12-24T16:12:25.187Z,97.56
2018-12-24T16:14:54.500Z,97.45
2018-12-24T16:17:23.782Z,97.50
2018-12-24T16:19:53.086Z,96.45
2018-12-24T16:22:22.373Z,96.76
2018-12-24T16:24:51.659Z,97.85
2018-12-24T16:27:20.935Z,98.25
2018-12-24T16:29:50.257Z,97.77
2018-12-24T16:32:19.614Z,99.91
2018-12-24T16:34:48.906Z,98.83
2018-12-24T16:37:18.186Z,99.38
2018-12-24T16:39:47.860Z,99.60
2018-12-24T16:42:17.085Z,99.24
2018-12-24T16:44:46.514Z,99.26
2018-12-24T16:47:15.821Z,100.00
2018-12-24T16:49:45.104Z,100.00
2018-12-24T16:52:14.679Z,100.00
2018-12-24T16:54:44.134Z,100.00
2018-12-24T16:57:13.435Z,100.00
2018-12-24T16:59:42.734Z,100.00
2018-12-24T17:02:14.888Z,100.00
2018-12-24T17:04:44.160Z,100.00
2018-12-24T17:07:13.453Z,100.00
2018-12-24T17:09:42.768Z,100.00
2018-12-24T17:12:14.804Z,100.00
2018-12-24T17:14:44.091Z,100.00
2018-12-24T17:17:13.387Z,100.00
2018-12-24T17:19:42.675Z,100.00
2018-12-24T17:22:11.986Z,100.00
2018-12-24T17:24:41.295Z,100.00
2018-12-24T17:27:10.593Z,100.00
2018-12-24T17:29:40.242Z,100.00
2018-12-24T17:32:09.558Z,100.00
2018-12-24T17:34:38.834Z,100.00
2018-12-24T17:37:08.132Z,100.00
2018-12-24T17:39:37.463Z,100.00
2018-12-24T17:42:06.739Z,100.00
2018-12-24T17:44:36.039Z,100.00
2018-12-24T17:47:05.356Z,100.00
2018-12-24T17:49:34.658Z,100.00
2018-12-24T17:52:03.972Z,100.00
2018-12-24T17:54:33.287Z,100.00
2018-12-24T17:57:02.565Z,100.00
2018-12-24T17:59:31.867Z,100.00
2018-12-24T18:02:01.523Z,100.00
2018-12-24T18:04:30.830Z,100.00
2018-12-24T18:07:00.108Z,100.00
2018-12-24T18:09:29.429Z,100.00
2018-12-24T18:11:58.699Z,100.00
2018-12-24T18:14:28.026Z,100.00
2018-12-24T18:16:57.309Z,100.00
2018-12-24T18:19:26.627Z,100.00
2018-12-24T18:21:55.975Z,100.00
2018-12-24T18:24:25.282Z,100.00
2018-12-24T18:26:54.579Z,100.00
2018-12-24T18:29:23.898Z,100.00
2018-12-24T18:31:53.206Z,100.00
2018-12-24T18:34:22.505Z,100.00
2018-12-24T18:36:51.787Z,100.00
2018-12-24T18:39:21.098Z,100.00
2018-12-24T18:41:50.400Z,100.00
2018-12-24T18:44:19.714Z,100.00
2018-12-24T18:46:49.027Z,100.00
2018-12-24T18:49:18.337Z,100.00
2018-12-24T18:51:47.667Z,100.00
2018-12-24T18:54:16.961Z,100.00
2018-12-24T18:56:46.629Z,100.00
2018-12-24T18:59:16.109Z,100.00
2018-12-24T19:01:45.408Z,100.00
2018-12-24T19:04:14.728Z,100.00
2018-12-24T19:06:44.171Z,100.00
2018-12-24T19:09:13.448Z,100.00
2018-12-24T19:11:42.774Z,100.00
2018-12-24T19:14:12.078Z,100.00
2018-12-24T19:16:41.407Z,100.00
2018-12-24T19:19:10.696Z,100.00
2018-12-24T19:21:43.941Z,100.00
2018-12-24T19:24:11.014Z,100.00
2018-12-24T19:26:40.329Z,100.00
2018-12-24T19:29:09.628Z,100.00
2018-12-24T19:31:38.948Z,100.00
2018-12-24T19:34:08.242Z,100.00
2018-12-24T19:36:37.552Z,100.00
2018-12-24T19:39:07.683Z,100.00
2018-12-24T19:41:37.000Z,100.00
2018-12-24T19:44:06.317Z,100.00
2018-12-24T19:46:35.633Z,100.00
2018-12-24T19:49:04.990Z,100.00
2018-12-24T19:51:34.293Z,100.00
2018-12-24T19:54:03.825Z,100.00
2018-12-24T19:56:33.122Z,100.00
2018-12-24T19:59:02.692Z,100.00
2018-12-24T20:01:32.061Z,100.00
2018-12-24T20:04:01.389Z,100.00
2018-12-24T20:06:30.782Z,100.00
2018-12-24T20:09:00.103Z,100.00
2018-12-24T20:11:29.416Z,100.00
2018-12-24T20:13:58.765Z,100.00
2018-12-24T20:16:28.071Z,100.00
2018-12-24T20:18:57.678Z,100.00
2018-12-24T20:21:26.971Z,100.00
2018-12-24T20:23:56.300Z,100.00
2018-12-24T20:26:25.594Z,100.00
2018-12-24T20:28:54.924Z,100.00
2018-12-24T20:31:24.231Z,100.00
2018-12-24T20:33:53.565Z,100.00
2018-12-24T20:36:23.052Z,100.00
2018-12-24T20:38:52.337Z,100.00
2018-12-24T20:41:21.664Z,100.00
2018-12-24T20:43:50.967Z,100.00
2018-12-24T20:46:20.284Z,100.00
2018-12-24T20:48:49.565Z,100.00
2018-12-24T20:51:18.896Z,100.00
2018-12-24T20:53:48.239Z,100.00
2018-12-24T20:56:17.573Z,100.00
2018-12-24T20:58:46.864Z,100.00
2018-12-24T21:01:16.176Z,100.00
2018-12-24T21:03:45.510Z,100.00
2018-12-24T21:06:14.827Z,100.00
2018-12-24T21:08:44.123Z,100.00
2018-12-24T21:11:13.450Z,100.00
2018-12-24T21:13:42.750Z,100.00
2018-12-24T21:16:12.279Z,100.00
2018-12-24T21:18:41.762Z,100.00
2018-12-24T21:21:11.551Z,100.00
2018-12-24T21:23:40.876Z,100.00
2018-12-24T21:26:10.686Z,100.00
2018-12-24T21:28:40.015Z,100.00
2018-12-24T21:31:09.378Z,100.00
2018-12-24T21:33:38.679Z,100.00
2018-12-24T21:36:08.077Z,100.00
2018-12-24T21:38:37.303Z,100.00
2018-12-24T21:41:06.597Z,100.00
2018-12-24T21:43:35.912Z,100.00
2018-12-24T21:46:05.224Z,100.00
2018-12-24T21:48:34.537Z,100.00
2018-12-24T21:51:03.846Z,100.00
2018-12-24T21:53:33.185Z,100.00
2018-12-24T21:56:02.489Z,100.00
2018-12-24T21:58:31.825Z,100.00
2018-12-24T22:01:01.152Z,100.00
2018-12-24T22:03:30.478Z,100.00
2018-12-24T22:05:59.805Z,100.00
2018-12-24T22:08:29.117Z,100.00
2018-12-24T22:10:58.441Z,100.00
2018-12-24T22:13:28.092Z,100.00
2018-12-24T22:15:57.430Z,100.00
2018-12-24T22:18:32.234Z,100.00
2018-12-24T22:20:58.267Z,100.00
2018-12-24T22:23:27.572Z,100.00
2018-12-24T22:25:56.896Z,100.00
2018-12-24T22:28:26.195Z,100.00
2018-12-24T22:30:55.520Z,100.00
2018-12-24T22:33:26.928Z,100.00
2018-12-24T22:35:55.873Z,100.00
2018-12-24T22:38:25.318Z,100.00
2018-12-24T22:40:54.647Z,100.00
2018-12-24T22:43:23.958Z,100.00
2018-12-24T22:45:53.300Z,100.00
2018-12-24T22:48:22.599Z,100.00
2018-12-24T22:50:51.927Z,100.00
2018-12-24T22:53:21.245Z,100.00
2018-12-24T22:55:50.556Z,100.00
2018-12-24T22:58:19.892Z,100.00
2018-12-24T23:00:50.028Z,100.00
2018-12-24T23:03:19.355Z,100.00
2018-12-24T23:05:48.666Z,100.00
2018-12-24T23:08:18.018Z,100.00
2018-12-24T23:10:47.348Z,100.00
2018-12-24T23:13:16.690Z,100.00
2018-12-24T23:15:46.019Z,100.00
2018-12-24T23:18:15.322Z,100.00
2018-12-24T23:20:44.898Z,100.00
2018-12-24T23:23:14.228Z,100.00
2018-12-24T23:25:43.541Z,100.00
2018-12-24T23:28:12.944Z,100.00
2018-12-24T23:30:42.251Z,100.00
2018-12-24T23:33:11.961Z,100.00
2018-12-24T23:35:41.279Z,100.00
2018-12-24T23:38:10.820Z,100.00
2018-12-24T23:40:40.128Z,100.00
2018-12-24T23:43:09.713Z,100.00
2018-12-24T23:45:39.056Z,100.00
2018-12-24T23:48:08.403Z,100.00
2018-12-24T23:50:37.757Z,100.00
2018-12-24T23:53:07.098Z,100.00
2018-12-24T23:55:36.434Z,100.00
2018-12-24T23:58:06.009Z,100.00
